Αρχική σελίδα
METAR-TAF:

METAR-TAF

Αεροδρόμια :

Biak, Ινδονησία

γεωγραφικό πλάτος: 01-11S, γεωγραφικό μήκος: 136-07E, υψόμετρο: 11 μ

Παρών καιρός

Η αναφορά έγινε 27 λεπτά πριν, στις 00:00 UTC
Άνεμος 6 kt από Δ/ΝΔ, μεταβλητός μεταξύ Α/BA και Δ/ΝΔ
Θερμοκρασία 29°C
Υγρασία 74%
Πίεση 1011 hPa
Ορατότητα 10 χλμ και άνω
Λίγα νέφη σε ύψος 1500 πόδια
Διάσπαρτα νέφη σε ύψος 10000 πόδια

METAR: WABB 150000Z 24006KT 060V240 9999 FEW015 SCT100 29/24 Q1011 NOSIG

Χρόνος: 07:27 (00:27 UTC)

Πρόγνωση Καιρού

Η αναφορά έγινε 1 ώρα και 27 λεπτά πριν, στις 23:00 UTC
Η πρόγνωση ισχύει από τις 15 στις 00 UTC έως τις 16 στις 06 UTC
Άνεμος 5 kt από
Ορατότητα 10 χλμ και άνω
Διάσπαρτα νέφη σε ύψος 1500 πόδια
Προσωρινά
από 15 στις 03 UTC έως τις 15 στις 06 UTC
βροχή,

TAF: WABB 142300Z 1500/1606 32005KT 9999 SCT015 TEMPO 1503/1506 RA

Μετεωρολογικές αναφορές και προγνώσεις για περισσότερα από 4000 αεροδρόμια (δελτία METAR και TAF).

Οι διαθέσιμοι σταθμοί απεικονίζονται στο χάρτη με κίτρινες και κόκκινες κουκκίδες.

Μετακινήστε το ποντίκι πάνω από τις κουκκίδες για να δείτε το όνομα του σταθμού.

Στη συνέχεια, κάντε κλικ για να δείτε τις μετεωρολογικές αναφορές και τις προγνώσεις καιρού.

Για να αλλάξετε το χάρτη: κάντε κλικ στα πράσινα κουμπιά με τον μαύρο σταυρό για να ζουμάρετε, στο πράσινο κουμπί με την παύλα για να αφαιρέσετε το ζουμ ή στα πράσινα βέλη για να αντιπαραβάλλετε χάρτες.


METAR-TAF: